Time;durP1;ratioP1;P1;durP2;ratioP2;P2;SDS_P1;SDS_P2;PMS_P1;PMS_P2;Temp;Humidity;BMP_temperature;BMP_pressure;BME280_temperature;BME280_humidity;BME280_pressure;Samples;Min_cycle;Max_cycle;Signal;HPM_P1;HPM_P2
2021/07/11 00:02:15;;;;;;;8.60;7.30;;;;;;;20.48;76.54;99420.34;1719626;83;20962;-69
2021/07/11 00:04:41;;;;;;;11.55;8.70;;;;;;;20.43;77.13;99419.88;1719622;83;21003;-69
2021/07/11 00:07:11;;;;;;;10.15;7.90;;;;;;;20.38;77.77;99417.64;1719718;83;20974;-69
2021/07/11 00:09:36;;;;;;;9.68;7.83;;;;;;;20.35;78.08;99415.69;1719913;83;21173;-69
2021/07/11 00:12:04;;;;;;;8.78;6.67;;;;;;;20.31;78.38;99409.82;1719625;83;21453;-68
2021/07/11 00:14:33;;;;;;;12.93;7.60;;;;;;;20.28;78.76;99405.63;1719637;83;20986;-68
2021/07/11 00:16:59;;;;;;;10.72;6.67;;;;;;;20.27;79.10;99407.07;1719875;83;20962;-68
2021/07/11 00:19:27;;;;;;;9.40;7.60;;;;;;;20.23;79.46;99403.84;1719838;83;20931;-69
2021/07/11 00:21:54;;;;;;;10.32;6.92;;;;;;;20.22;79.69;99402.64;1719605;83;21174;-69
2021/07/11 00:24:21;;;;;;;11.95;7.42;;;;;;;20.21;80.00;99403.60;1719612;83;20979;-68
2021/07/11 00:26:48;;;;;;;7.97;7.17;;;;;;;20.20;80.22;99404.08;1719622;83;20959;-68
2021/07/11 00:29:14;;;;;;;10.95;7.37;;;;;;;20.19;80.48;99403.73;1719622;83;20994;-69
2021/07/11 00:31:42;;;;;;;9.53;6.50;;;;;;;20.18;80.74;99407.33;1719731;83;21018;-68
2021/07/11 00:34:09;;;;;;;9.80;6.95;;;;;;;20.16;81.02;99409.77;1719716;83;21211;-68
2021/07/11 00:36:36;;;;;;;13.95;7.55;;;;;;;20.14;81.23;99400.65;1719650;83;20942;-69
2021/07/11 00:39:04;;;;;;;11.22;7.30;;;;;;;20.14;81.31;99400.65;1719576;83;21038;-69
2021/07/11 00:41:38;;;;;;;9.28;7.53;;;;;;;20.13;81.39;99396.33;1719686;83;20993;-69
2021/07/11 00:44:06;;;;;;;8.63;6.45;;;;;;;20.11;81.75;99397.41;1693458;83;21552;-69
2021/07/11 00:46:35;;;;;;;9.78;7.08;;;;;;;20.09;81.97;99400.66;1719678;82;21141;-69
2021/07/11 00:49:06;;;;;;;8.58;6.28;;;;;;;20.09;82.01;99403.30;1717356;83;21046;-69
2021/07/11 00:51:34;;;;;;;11.88;7.33;;;;;;;20.06;81.88;99401.74;1717288;83;20986;-69
2021/07/11 00:54:01;;;;;;;14.20;8.45;;;;;;;20.05;82.05;99401.86;1717499;83;20978;-69
2021/07/11 00:56:28;;;;;;;10.35;8.25;;;;;;;20.03;81.73;99401.16;1717204;83;20962;-69
2021/07/11 00:58:56;;;;;;;11.48;7.47;;;;;;;20.00;81.33;99400.08;1717426;83;21955;-69
2021/07/11 01:01:36;;;;;;;11.97;7.83;;;;;;;19.95;81.05;99396.52;1717117;83;21006;-69
2021/07/11 01:04:10;;;;;;;11.38;8.18;;;;;;;19.93;80.92;99397.95;1717213;83;20999;-68
2021/07/11 01:06:41;;;;;;;10.35;7.97;;;;;;;19.88;81.23;99397.96;1696949;83;20970;-69
2021/07/11 01:09:12;;;;;;;10.00;7.75;;;;;;;19.84;81.87;99398.69;1717559;83;20990;-68
2021/07/11 01:11:48;;;;;;;12.53;7.25;;;;;;;19.80;82.59;99391.97;1696695;83;21141;-69
2021/07/11 01:14:15;;;;;;;10.85;6.72;;;;;;;19.77;82.99;99396.20;1717654;83;20995;-68
2021/07/11 01:16:47;;;;;;;9.65;7.00;;;;;;;19.74;83.26;99397.77;1696961;83;21479;-68
2021/07/11 01:19:30;;;;;;;9.40;6.53;;;;;;;19.71;83.71;99400.64;1717190;83;20947;-68
2021/07/11 01:21:56;;;;;;;12.75;6.37;;;;;;;19.69;84.08;99403.88;1684671;83;20995;-69
2021/07/11 01:24:30;;;;;;;7.87;6.10;;;;;;;19.65;84.09;99399.80;1716932;83;21747;-69
2021/07/11 01:27:00;;;;;;;6.70;5.80;;;;;;;19.65;84.26;99401.13;1717173;82;21432;-70
2021/07/11 01:29:27;;;;;;;12.15;6.37;;;;;;;19.62;84.39;99401.36;1697315;83;20966;-69
2021/07/11 01:31:54;;;;;;;6.97;5.97;;;;;;;19.61;84.39;99398.36;1696884;83;21008;-69
2021/07/11 01:34:24;;;;;;;10.40;6.75;;;;;;;19.59;84.37;99398.97;1717271;83;21073;-69
2021/07/11 01:36:51;;;;;;;10.78;6.35;;;;;;;19.58;84.44;99407.88;1717425;83;21123;-69
2021/07/11 01:39:19;;;;;;;10.08;6.10;;;;;;;19.56;84.29;99405.83;1717070;83;20942;-69
2021/07/11 01:41:46;;;;;;;9.33;6.47;;;;;;;19.54;84.19;99406.43;1717267;83;21029;-69
2021/07/11 01:44:13;;;;;;;7.70;6.45;;;;;;;19.53;84.02;99407.39;1717211;83;20990;-69
2021/07/11 01:46:41;;;;;;;7.33;6.35;;;;;;;19.48;84.20;99410.83;1717349;83;21399;-69
2021/07/11 01:49:08;;;;;;;9.13;6.33;;;;;;;19.46;84.38;99406.16;1717083;83;23333;-69
2021/07/11 01:51:35;;;;;;;9.90;6.28;;;;;;;19.44;84.42;99402.31;1717062;83;20951;-69
2021/07/11 01:54:03;;;;;;;10.45;6.58;;;;;;;19.43;84.29;99408.55;1717121;83;21054;-69
2021/07/11 01:56:30;;;;;;;8.40;6.70;;;;;;;19.40;84.52;99408.78;1717182;83;21909;-69
2021/07/11 01:58:58;;;;;;;7.87;6.42;;;;;;;19.39;84.68;99407.11;1717270;83;20950;-69
2021/07/11 02:01:25;;;;;;;12.82;7.22;;;;;;;19.37;84.54;99410.38;1717350;83;22062;-69
2021/07/11 02:03:54;;;;;;;11.30;7.55;;;;;;;19.37;84.21;99408.22;1717444;82;21042;-69
2021/07/11 02:06:21;;;;;;;11.43;7.05;;;;;;;19.35;84.10;99405.70;1717125;83;21014;-69
2021/07/11 02:08:51;;;;;;;10.80;7.75;;;;;;;19.36;83.95;99407.85;1716881;83;21150;-69
2021/07/11 02:11:25;;;;;;;10.95;7.80;;;;;;;19.34;84.09;99409.77;1716548;83;21435;-69
2021/07/11 02:14:18;;;;;;;9.00;6.75;;;;;;;19.32;84.27;99409.89;1713901;83;21455;-69
2021/07/11 02:17:04;;;;;;;8.88;7.50;;;;;;;19.34;84.28;99409.77;1717218;83;20987;-69
2021/07/11 02:19:40;;;;;;;9.40;7.40;;;;;;;19.31;84.39;99408.20;1697163;83;20954;-69
2021/07/11 02:22:10;;;;;;;8.38;6.60;;;;;;;19.35;84.66;99412.28;1717244;83;20958;-69
2021/07/11 02:24:41;;;;;;;7.85;7.05;;;;;;;19.42;84.56;99407.34;1717691;83;20955;-69
2021/07/11 02:27:09;;;;;;;8.40;6.72;;;;;;;19.51;84.56;99407.51;1717139;83;21175;-69
2021/07/11 02:29:39;;;;;;;9.15;6.72;;;;;;;19.68;84.40;99415.39;1717394;83;21069;-69
2021/07/11 02:32:08;;;;;;;10.80;7.00;;;;;;;19.85;83.89;99413.56;1717487;83;21392;-69
2021/07/11 02:34:36;;;;;;;8.40;6.85;;;;;;;20.07;82.82;99419.27;1717408;83;21007;-69
2021/07/11 02:37:08;;;;;;;9.93;8.08;;;;;;;20.33;81.50;99413.66;1697283;83;20954;-69
2021/07/11 02:39:37;;;;;;;7.70;6.90;;;;;;;20.59;80.37;99420.27;1717238;83;21096;-69
2021/07/11 02:42:07;;;;;;;13.35;7.12;;;;;;;20.87;79.35;99420.13;1717122;82;21045;-69
2021/07/11 02:44:35;;;;;;;10.93;7.58;;;;;;;21.16;78.10;99415.84;1717263;82;20987;-69
2021/07/11 02:47:10;;;;;;;10.78;7.12;;;;;;;21.48;77.22;99409.11;1717320;83;21006;-69
2021/07/11 02:49:40;;;;;;;7.28;6.25;;;;;;;21.80;76.20;99407.58;1731259;82;20960;-69
2021/07/11 02:52:09;;;;;;;7.22;6.53;;;;;;;22.14;74.53;99405.94;1708876;82;21129;-69
2021/07/11 02:54:50;;;;;;;11.28;6.67;;;;;;;22.36;72.87;99402.19;1732911;82;21094;-69
2021/07/11 02:57:21;;;;;;;13.03;7.15;;;;;;;22.41;71.71;99400.77;1732967;82;20919;-69
2021/07/11 02:59:48;;;;;;;8.55;6.45;;;;;;;22.37;71.35;99400.72;1732910;82;21447;-69
2021/07/11 03:02:17;;;;;;;12.23;7.37;;;;;;;22.36;70.87;99405.67;1732998;82;37268;-69
2021/07/11 03:04:44;;;;;;;11.05;6.85;;;;;;;22.32;70.57;99401.13;1706960;82;21163;-69
2021/07/11 03:07:12;;;;;;;10.25;6.90;;;;;;;22.25;70.04;99401.81;1732806;82;21058;-69
2021/07/11 03:09:41;;;;;;;11.43;7.50;;;;;;;22.23;69.64;99409.06;1732881;82;20995;-69
2021/07/11 03:12:10;;;;;;;12.25;7.85;;;;;;;22.41;69.27;99411.85;1707858;82;20967;-69
2021/07/11 03:14:38;;;;;;;12.05;7.75;;;;;;;22.72;68.26;99409.88;1733130;82;21011;-69
2021/07/11 03:17:07;;;;;;;12.15;6.92;;;;;;;23.09;67.14;99412.13;1732893;82;21428;-69
2021/07/11 03:19:38;;;;;;;14.13;6.95;;;;;;;23.57;66.22;99414.63;1732763;82;21110;-69
2021/07/11 03:22:05;;;;;;;8.33;7.50;;;;;;;24.09;65.36;99417.52;1732974;82;20999;-69
2021/07/11 03:24:33;;;;;;;8.98;7.62;;;;;;;24.63;63.73;99415.70;1732743;82;21015;-69
2021/07/11 03:27:03;;;;;;;10.20;7.30;;;;;;;25.09;62.40;99412.40;1732901;82;21019;-70
2021/07/11 03:29:39;;;;;;;10.58;7.20;;;;;;;25.55;61.18;99415.13;1732860;82;21209;-70
2021/07/11 03:32:07;;;;;;;8.63;7.20;;;;;;;26.02;59.75;99410.97;1732931;82;21597;-70
2021/07/11 03:34:34;;;;;;;11.30;7.08;;;;;;;26.47;57.96;99419.05;1732877;82;21046;-70
2021/07/11 03:37:09;;;;;;;10.88;7.12;;;;;;;26.84;56.95;99416.37;1732031;82;21038;-70
2021/07/11 03:39:44;;;;;;;9.40;7.42;;;;;;;27.29;55.93;99421.16;1732920;82;20951;-69
2021/07/11 03:42:12;;;;;;;7.92;6.92;;;;;;;27.68;54.52;99410.01;1732931;82;21151;-69
2021/07/11 03:44:47;;;;;;;9.75;6.75;;;;;;;28.07;53.59;99412.63;1732753;82;21039;-69
2021/07/11 03:47:11;;;;;;;12.28;7.05;;;;;;;28.48;52.25;99415.05;1732452;82;21534;-69
2021/07/11 03:49:38;;;;;;;11.70;6.80;;;;;;;28.83;51.01;99416.27;1720856;82;21002;-69
2021/07/11 03:52:06;;;;;;;8.90;7.28;;;;;;;29.09;50.28;99421.20;1717094;83;20983;-69
2021/07/11 03:54:36;;;;;;;12.00;7.25;;;;;;;29.36;48.86;99411.71;1717159;83;21095;-69
2021/07/11 03:57:06;;;;;;;9.80;6.72;;;;;;;29.56;48.25;99412.00;1717267;83;21659;-69
2021/07/11 03:59:33;;;;;;;13.75;7.83;;;;;;;29.88;47.40;99407.53;1717107;83;21049;-69
2021/07/11 04:02:02;;;;;;;8.90;7.00;;;;;;;30.23;46.63;99409.89;1717202;83;20967;-69
2021/07/11 04:04:28;;;;;;;10.32;7.40;;;;;;;30.57;45.44;99407.06;1717172;83;20958;-69
2021/07/11 04:06:55;;;;;;;9.00;7.67;;;;;;;30.84;45.26;99411.09;1717069;83;21154;-69
2021/07/11 04:09:22;;;;;;;8.75;7.95;;;;;;;31.16;44.43;99411.56;1717186;83;21467;-69
2021/07/11 04:11:50;;;;;;;8.33;7.58;;;;;;;31.43;43.88;99421.92;1717193;82;20974;-69
2021/07/11 04:14:21;;;;;;;9.90;8.33;;;;;;;31.69;43.24;99421.27;1717167;82;21010;-69
2021/07/11 04:17:05;;;;;;;15.23;13.40;;;;;;;31.99;42.83;99424.45;1717291;83;20955;-69
2021/07/11 04:19:36;;;;;;;12.85;8.53;;;;;;;32.31;41.83;99416.19;1717535;83;21852;-70
2021/07/11 04:22:03;;;;;;;11.55;10.30;;;;;;;32.45;41.34;99411.95;1717235;83;21010;-70
2021/07/11 04:24:30;;;;;;;11.57;9.60;;;;;;;32.29;41.09;99414.22;1717267;83;21061;-69
2021/07/11 04:26:57;;;;;;;11.65;9.73;;;;;;;32.15;41.28;99417.38;1717352;83;21003;-69
2021/07/11 04:29:23;;;;;;;15.60;10.20;;;;;;;31.97;41.72;99415.78;1717222;83;20978;-69
2021/07/11 04:31:51;;;;;;;19.07;10.18;;;;;;;31.56;41.91;99419.84;1717183;83;21070;-69
2021/07/11 04:34:34;;;;;;;15.98;9.68;;;;;;;30.79;43.35;99414.86;1717121;83;20942;-70
2021/07/11 04:37:04;;;;;;;12.25;10.23;;;;;;;30.44;44.40;99417.12;1717209;83;20982;-70
2021/07/11 04:39:32;;;;;;;12.55;10.30;;;;;;;30.56;44.52;99412.94;1717310;82;21538;-70
2021/07/11 04:42:00;;;;;;;12.35;9.63;;;;;;;30.94;43.93;99416.64;1717324;83;21423;-69
2021/07/11 04:44:30;;;;;;;13.43;10.18;;;;;;;31.34;43.63;99417.76;1717381;83;21819;-70
2021/07/11 04:46:58;;;;;;;11.50;10.50;;;;;;;31.77;42.92;99419.75;1717037;83;20958;-69
2021/07/11 04:49:25;;;;;;;10.98;9.95;;;;;;;32.14;42.11;99414.37;1725242;82;21460;-69
2021/07/11 04:51:54;;;;;;;11.18;9.88;;;;;;;32.42;41.25;99422.30;1732969;82;20999;-69
2021/07/11 04:54:21;;;;;;;12.63;9.48;;;;;;;32.57;41.24;99418.09;1733060;82;21090;-69
2021/07/11 04:56:47;;;;;;;16.37;10.82;;;;;;;32.89;40.66;99416.45;1733089;82;21057;-69
2021/07/11 04:59:13;;;;;;;10.28;9.48;;;;;;;33.28;40.24;99416.92;1732979;82;20983;-69
2021/07/11 05:01:40;;;;;;;12.05;9.50;;;;;;;33.44;39.21;99415.11;1733036;82;21404;-69
2021/07/11 05:04:06;;;;;;;10.78;9.78;;;;;;;33.40;39.33;99413.36;1733012;82;20963;-69
2021/07/11 05:06:33;;;;;;;11.40;10.25;;;;;;;33.46;38.89;99419.78;1733114;82;21042;-69
2021/07/11 05:09:00;;;;;;;10.80;9.78;;;;;;;33.52;39.03;99422.98;1732948;82;21162;-68
2021/07/11 05:11:27;;;;;;;12.90;10.03;;;;;;;33.70;39.09;99416.89;1732990;82;20987;-68
2021/07/11 05:13:53;;;;;;;10.72;9.73;;;;;;;34.01;38.54;99417.48;1733082;82;20999;-69
2021/07/11 05:16:21;;;;;;;11.25;10.03;;;;;;;34.07;38.06;99419.33;1733087;82;21030;-69
2021/07/11 05:18:48;;;;;;;12.13;9.43;;;;;;;34.17;37.87;99410.25;1733181;82;20999;-69
2021/07/11 05:21:15;;;;;;;13.45;10.18;;;;;;;34.32;37.94;99410.80;1732964;82;21102;-69
2021/07/11 05:23:41;;;;;;;10.60;9.60;;;;;;;34.62;37.80;99408.27;1732962;82;21089;-69
2021/07/11 05:26:07;;;;;;;10.80;9.70;;;;;;;34.91;37.17;99414.09;1732918;82;20967;-69
2021/07/11 05:28:34;;;;;;;12.23;10.95;;;;;;;35.06;36.92;99412.67;1733007;82;21047;-69
2021/07/11 05:31:00;;;;;;;11.20;9.85;;;;;;;35.30;36.51;99413.71;1733395;82;21038;-70
2021/07/11 05:33:27;;;;;;;11.80;10.70;;;;;;;35.45;36.16;99412.80;1732929;82;21274;-69
2021/07/11 05:35:53;;;;;;;11.35;10.35;;;;;;;35.52;36.13;99412.21;1733307;82;21144;-69
2021/07/11 05:38:20;;;;;;;11.05;10.15;;;;;;;35.67;35.78;99415.88;1733061;82;20986;-69
2021/07/11 05:40:47;;;;;;;10.95;9.73;;;;;;;35.69;35.58;99415.64;1733115;82;20964;-70
2021/07/11 05:43:13;;;;;;;13.93;9.43;;;;;;;35.73;35.53;99412.27;1732904;82;21128;-70
2021/07/11 05:45:40;;;;;;;9.40;8.60;;;;;;;35.76;34.81;99413.20;1733179;82;21432;-70
2021/07/11 05:48:06;;;;;;;10.25;9.20;;;;;;;35.78;34.79;99408.36;1732875;82;20951;-70
2021/07/11 05:50:34;;;;;;;13.55;11.08;;;;;;;35.89;34.27;99415.72;1732928;82;21084;-69
2021/07/11 05:53:01;;;;;;;8.73;8.03;;;;;;;35.96;34.52;99414.28;1732930;82;21049;-69
2021/07/11 05:55:28;;;;;;;9.60;8.68;;;;;;;36.06;33.76;99411.84;1733141;82;20959;-70
2021/07/11 05:57:54;;;;;;;9.28;8.58;;;;;;;36.07;33.21;99415.38;1732880;82;21241;-70
2021/07/11 06:00:20;;;;;;;9.60;8.90;;;;;;;35.88;33.49;99412.71;1732956;82;21002;-70
2021/07/11 06:02:47;;;;;;;9.65;8.70;;;;;;;35.54;34.43;99411.46;1732924;82;20999;-70
2021/07/11 06:05:14;;;;;;;10.38;9.10;;;;;;;35.37;34.37;99411.77;1733025;82;21514;-70
2021/07/11 06:07:40;;;;;;;12.65;8.33;;;;;;;35.20;34.76;99411.48;1732920;82;20967;-70
2021/07/11 06:10:08;;;;;;;12.03;8.30;;;;;;;35.03;34.65;99408.23;1732992;82;21508;-70
2021/07/11 06:12:34;;;;;;;10.98;8.28;;;;;;;34.86;35.09;99406.64;1732933;82;20994;-69
2021/07/11 06:15:03;;;;;;;9.00;8.10;;;;;;;34.59;35.21;99410.05;1733064;82;21050;-70
2021/07/11 06:17:32;;;;;;;10.30;9.08;;;;;;;34.30;35.52;99400.73;1732906;82;20964;-70
2021/07/11 06:20:02;;;;;;;8.75;7.85;;;;;;;33.91;35.77;99404.47;1733015;82;20939;-69
2021/07/11 06:22:29;;;;;;;7.85;7.10;;;;;;;33.49;36.44;99408.05;1733282;82;21138;-69
2021/07/11 06:24:56;;;;;;;7.87;6.87;;;;;;;33.29;36.18;99412.67;1732780;82;20960;-70
2021/07/11 06:27:22;;;;;;;7.65;6.90;;;;;;;33.12;36.59;99404.19;1732960;82;20943;-69
2021/07/11 06:29:49;;;;;;;6.72;5.83;;;;;;;32.89;37.94;99406.50;1732888;82;21003;-69
2021/07/11 06:32:15;;;;;;;8.65;7.65;;;;;;;32.70;37.48;99404.62;1733297;82;21043;-69
2021/07/11 06:34:43;;;;;;;7.17;6.47;;;;;;;32.54;38.20;99404.52;1733036;82;21086;-70
2021/07/11 06:37:10;;;;;;;12.85;6.47;;;;;;;32.46;38.09;99403.36;1732933;82;21397;-69
2021/07/11 06:39:37;;;;;;;8.20;6.58;;;;;;;32.30;38.34;99407.29;1733014;82;21031;-70
2021/07/11 06:42:03;;;;;;;6.55;5.95;;;;;;;32.10;38.46;99404.53;1733222;82;21003;-70
2021/07/11 06:44:30;;;;;;;6.53;6.03;;;;;;;31.92;38.84;99404.28;1733289;82;21007;-70
2021/07/11 06:46:56;;;;;;;16.40;6.25;;;;;;;31.80;37.89;99404.02;1732854;82;23318;-70
2021/07/11 06:49:25;;;;;;;8.33;5.22;;;;;;;31.74;37.55;99402.67;1732777;82;20896;-70
2021/07/11 06:51:51;;;;;;;6.28;5.78;;;;;;;31.64;37.42;99401.66;1732941;82;21038;-69
2021/07/11 06:54:18;;;;;;;6.10;5.50;;;;;;;31.51;37.93;99405.13;1732916;82;21862;-70
2021/07/11 06:56:44;;;;;;;7.20;5.40;;;;;;;31.32;38.95;99398.31;1732953;82;21039;-70
2021/07/11 06:59:10;;;;;;;7.35;5.45;;;;;;;31.16;39.16;99407.02;1732908;82;21221;-70
2021/07/11 07:01:37;;;;;;;6.08;5.47;;;;;;;31.02;39.74;99403.88;1733067;82;21412;-70
2021/07/11 07:04:04;;;;;;;5.90;5.25;;;;;;;30.86;38.75;99404.19;1732850;82;21003;-69
2021/07/11 07:06:30;;;;;;;5.67;5.17;;;;;;;30.67;39.81;99396.30;1732845;82;21011;-70
2021/07/11 07:08:57;;;;;;;6.42;5.62;;;;;;;30.58;40.24;99403.33;1733031;82;21522;-69
2021/07/11 07:11:23;;;;;;;6.22;5.70;;;;;;;30.51;40.67;99399.23;1732838;82;21077;-70
2021/07/11 07:13:50;;;;;;;6.03;5.50;;;;;;;30.49;41.09;99399.42;1732954;82;20944;-71
2021/07/11 07:16:17;;;;;;;6.25;5.75;;;;;;;30.48;40.96;99405.81;1732822;82;20975;-70
2021/07/11 07:18:45;;;;;;;13.10;6.20;;;;;;;30.49;41.15;99403.95;1732946;82;20990;-70
2021/07/11 07:21:12;;;;;;;8.30;5.17;;;;;;;30.46;40.56;99411.88;1732971;82;21094;-70
2021/07/11 07:23:38;;;;;;;5.67;5.20;;;;;;;30.44;40.41;99414.44;1732891;82;21513;-70
2021/07/11 07:26:04;;;;;;;8.58;5.75;;;;;;;30.39;40.33;99408.30;1732792;82;21003;-70
2021/07/11 07:28:31;;;;;;;5.67;4.92;;;;;;;30.36;41.19;99407.36;1732943;82;21086;-70
2021/07/11 07:30:57;;;;;;;6.22;4.87;;;;;;;30.34;40.40;99409.41;1733222;82;20959;-70
2021/07/11 07:33:24;;;;;;;5.12;4.62;;;;;;;30.33;39.87;99410.94;1732895;82;21486;-70
2021/07/11 07:35:50;;;;;;;5.42;5.00;;;;;;;30.30;39.07;99407.29;1733105;82;21118;-69
2021/07/11 07:38:16;;;;;;;5.85;5.28;;;;;;;30.27;39.53;99413.03;1732850;82;20932;-70
2021/07/11 07:40:43;;;;;;;5.12;4.70;;;;;;;30.26;39.72;99404.16;1733185;82;21475;-70
2021/07/11 07:43:13;;;;;;;6.35;5.03;;;;;;;30.28;38.92;99413.36;1733281;82;21447;-70
2021/07/11 07:45:38;;;;;;;8.65;4.47;;;;;;;30.25;39.02;99405.17;1732686;82;21423;-71
2021/07/11 07:48:05;;;;;;;6.80;4.83;;;;;;;30.20;37.85;99400.88;1732788;82;21033;-70
2021/07/11 07:50:31;;;;;;;6.08;4.62;;;;;;;30.22;38.70;99406.89;1723784;82;21073;-70
2021/07/11 07:52:58;;;;;;;6.75;4.55;;;;;;;30.27;38.40;99400.45;1717060;83;20998;-71
2021/07/11 07:55:25;;;;;;;18.23;5.50;;;;;;;30.37;38.84;99401.48;1717037;83;21490;-70
2021/07/11 07:57:52;;;;;;;9.03;4.95;;;;;;;30.48;38.55;99399.10;1717091;83;21025;-70
2021/07/11 08:00:19;;;;;;;5.05;4.05;;;;;;;30.60;37.95;99401.28;1717027;83;23259;-70
2021/07/11 08:02:46;;;;;;;5.08;4.60;;;;;;;30.68;37.14;99407.35;1716973;83;21407;-70
2021/07/11 08:05:13;;;;;;;6.40;4.75;;;;;;;30.71;36.31;99402.94;1717010;83;21014;-70
2021/07/11 08:07:39;;;;;;;5.20;4.70;;;;;;;30.63;37.00;99398.21;1717183;83;20979;-70
2021/07/11 08:10:07;;;;;;;5.75;4.47;;;;;;;30.56;36.21;99402.72;1717130;83;21450;-70
2021/07/11 08:12:33;;;;;;;5.95;3.90;;;;;;;30.55;34.82;99395.17;1717119;83;21094;-70
2021/07/11 08:15:00;;;;;;;9.10;4.55;;;;;;;30.60;34.71;99402.11;1716968;83;21619;-70
2021/07/11 08:17:26;;;;;;;5.90;3.58;;;;;;;30.67;34.69;99402.17;1717019;83;21014;-69
2021/07/11 08:19:55;;;;;;;4.15;3.85;;;;;;;30.74;34.10;99393.16;1717119;83;21018;-70
2021/07/11 08:22:23;;;;;;;5.65;4.40;;;;;;;30.90;34.50;99395.23;1717077;83;21003;-70
2021/07/11 08:24:50;;;;;;;4.30;4.00;;;;;;;31.11;34.49;99399.22;1717004;82;21063;-70
2021/07/11 08:27:16;;;;;;;5.62;4.17;;;;;;;31.30;33.12;99401.70;1717051;83;21396;-70
2021/07/11 08:29:43;;;;;;;4.60;4.30;;;;;;;31.44;32.49;99400.73;1716992;83;21042;-71
2021/07/11 08:32:09;;;;;;;4.87;4.37;;;;;;;31.47;31.84;99393.63;1717075;83;21008;-70
2021/07/11 08:34:35;;;;;;;4.87;4.37;;;;;;;31.53;32.76;99389.31;1717171;83;21554;-70
2021/07/11 08:37:04;;;;;;;5.42;4.03;;;;;;;31.52;31.40;99389.83;1717137;83;21030;-70
2021/07/11 08:39:31;;;;;;;4.22;3.80;;;;;;;31.51;31.74;99389.52;1716963;83;21093;-69
2021/07/11 08:41:59;;;;;;;5.97;3.77;;;;;;;31.51;30.18;99389.00;1717301;83;21411;-70
2021/07/11 08:44:26;;;;;;;4.08;3.75;;;;;;;31.52;30.92;99389.83;1716997;83;21054;-69
2021/07/11 08:46:54;;;;;;;8.38;4.42;;;;;;;31.57;30.95;99387.38;1717005;83;20942;-70
2021/07/11 08:49:21;;;;;;;5.45;3.62;;;;;;;31.59;31.71;99385.29;1717025;83;23177;-70
2021/07/11 08:51:51;;;;;;;7.22;4.30;;;;;;;31.56;30.82;99388.41;1716921;82;20993;-71
2021/07/11 08:54:18;;;;;;;4.33;3.83;;;;;;;31.56;31.68;99386.23;1716490;83;21068;-71
2021/07/11 08:56:46;;;;;;;4.42;4.03;;;;;;;31.52;32.82;99385.80;1717115;83;21443;-71
2021/07/11 08:59:13;;;;;;;4.35;3.92;;;;;;;31.36;33.38;99391.52;1717148;83;21030;-70
2021/07/11 09:01:39;;;;;;;6.17;3.98;;;;;;;31.15;33.54;99385.72;1717572;83;21162;-70
2021/07/11 09:04:09;;;;;;;5.03;4.25;;;;;;;31.00;33.16;99379.06;1717281;83;21426;-70
2021/07/11 09:06:49;;;;;;;4.60;3.70;;;;;;;30.96;34.90;99381.85;1717274;83;20946;-70
2021/07/11 09:09:31;;;;;;;4.42;4.03;;;;;;;30.99;34.82;99381.95;1717276;83;20943;-69
2021/07/11 09:12:08;;;;;;;4.10;3.80;;;;;;;30.90;33.54;99379.11;1717878;83;20990;-69
2021/07/11 09:14:43;;;;;;;5.15;3.47;;;;;;;30.75;33.00;99374.69;1717303;83;21128;-70
2021/07/11 09:17:11;;;;;;;5.17;3.40;;;;;;;30.70;32.98;99371.75;1717128;83;20998;-70
2021/07/11 09:19:48;;;;;;;4.25;3.52;;;;;;;30.70;31.82;99376.29;1717166;83;21426;-70
2021/07/11 09:22:17;;;;;;;4.80;3.90;;;;;;;30.71;32.77;99376.09;1717430;83;21041;-70
2021/07/11 09:24:56;;;;;;;3.87;3.47;;;;;;;30.75;34.05;99374.69;1717415;83;21014;-70
2021/07/11 09:27:26;;;;;;;5.62;3.90;;;;;;;30.82;33.03;99370.69;1717162;83;21188;-69
2021/07/11 09:29:55;;;;;;;4.20;3.75;;;;;;;30.90;33.53;99373.23;1717219;83;21002;-69
2021/07/11 09:32:26;;;;;;;3.98;3.65;;;;;;;30.90;33.74;99368.37;1697011;83;21013;-69
2021/07/11 09:34:53;;;;;;;6.58;4.30;;;;;;;30.86;33.68;99366.59;1717577;83;20995;-69
2021/07/11 09:37:19;;;;;;;4.47;3.45;;;;;;;30.88;34.11;99361.85;1717152;82;20935;-69
2021/07/11 09:39:56;;;;;;;4.03;3.72;;;;;;;31.01;33.39;99361.09;1717347;83;21394;-69
2021/07/11 09:42:29;;;;;;;11.25;4.00;;;;;;;31.17;32.62;99367.55;1716885;83;21010;-69
2021/07/11 09:44:59;;;;;;;7.47;3.30;;;;;;;31.25;32.32;99360.64;1717193;82;21419;-69
2021/07/11 09:47:29;;;;;;;5.00;3.52;;;;;;;31.32;31.80;99358.83;1717178;83;21107;-69
2021/07/11 09:50:11;;;;;;;4.65;3.72;;;;;;;31.38;31.87;99367.93;1717166;82;21018;-69
2021/07/11 09:52:43;;;;;;;5.67;3.65;;;;;;;31.44;31.47;99362.59;1717176;83;21176;-70
2021/07/11 09:55:18;;;;;;;5.75;3.50;;;;;;;31.59;31.89;99363.78;1716621;83;20998;-70
2021/07/11 09:57:56;;;;;;;9.05;3.65;;;;;;;31.75;31.76;99350.03;1717337;83;20978;-70
2021/07/11 10:00:33;;;;;;;4.17;3.80;;;;;;;31.87;31.15;99358.33;1717177;83;21928;-69
2021/07/11 10:03:06;;;;;;;4.47;3.25;;;;;;;31.95;30.56;99355.98;1717198;83;21432;-69
2021/07/11 10:05:33;;;;;;;3.47;3.17;;;;;;;31.95;30.87;99354.11;1717104;83;21187;-69
2021/07/11 10:08:00;;;;;;;3.30;3.00;;;;;;;32.01;30.10;99356.48;1717057;83;21491;-69
2021/07/11 10:10:30;;;;;;;3.90;3.60;;;;;;;32.08;30.65;99353.30;1717189;83;20966;-69
2021/07/11 10:12:58;;;;;;;5.22;3.40;;;;;;;32.15;30.36;99363.56;1717206;83;20995;-70
2021/07/11 10:15:27;;;;;;;6.10;3.50;;;;;;;32.14;31.35;99365.94;1717165;83;21014;-70
2021/07/11 10:18:09;;;;;;;3.77;3.45;;;;;;;32.08;30.43;99360.02;1717312;83;21137;-69
2021/07/11 10:20:42;;;;;;;4.55;3.75;;;;;;;32.02;30.60;99360.83;1717085;83;21533;-70
2021/07/11 10:23:09;;;;;;;5.47;3.45;;;;;;;31.88;30.66;99357.81;1717255;83;20918;-70
2021/07/11 10:25:37;;;;;;;4.17;3.17;;;;;;;31.80;30.32;99359.64;1717325;83;20967;-70
2021/07/11 10:28:12;;;;;;;3.30;3.10;;;;;;;31.85;31.10;99357.19;1717281;83;21002;-70
2021/07/11 10:30:44;;;;;;;4.53;2.85;;;;;;;31.98;29.58;99355.03;1717137;83;21140;-70
2021/07/11 10:33:21;;;;;;;3.60;2.87;;;;;;;32.10;28.35;99351.23;1717331;83;21000;-70
2021/07/11 10:35:59;;;;;;;3.42;3.12;;;;;;;32.24;28.37;99350.75;1717202;83;20950;-70
2021/07/11 10:38:41;;;;;;;3.83;3.35;;;;;;;32.36;28.55;99352.64;1717162;83;21573;-70
2021/07/11 10:41:19;;;;;;;4.47;2.87;;;;;;;32.30;28.97;99366.92;1688291;83;20970;-70
2021/07/11 10:44:08;;;;;;;3.50;3.20;;;;;;;32.13;29.33;99361.08;1717233;83;23370;-70
2021/07/11 10:46:44;;;;;;;3.80;3.20;;;;;;;32.11;29.18;99359.11;1717123;83;21047;-70
2021/07/11 10:49:20;;;;;;;4.25;3.35;;;;;;;32.21;28.57;99363.27;1717070;82;21553;-70
2021/07/11 10:51:52;;;;;;;4.75;3.50;;;;;;;32.34;28.51;99357.92;1720174;82;21923;-70
2021/07/11 10:54:28;;;;;;;5.40;3.15;;;;;;;32.45;29.05;99355.42;1717399;83;20955;-70
2021/07/11 10:56:57;;;;;;;3.87;3.40;;;;;;;32.47;28.37;99350.66;1717199;83;21164;-71
2021/07/11 10:59:33;;;;;;;4.85;3.20;;;;;;;32.42;28.70;99350.97;1717069;83;21053;-70
2021/07/11 11:02:01;;;;;;;3.45;3.25;;;;;;;32.36;28.95;99351.81;1717278;83;21386;-70
2021/07/11 11:04:27;;;;;;;4.20;3.00;;;;;;;32.30;29.26;99349.94;1696725;83;21002;-71
2021/07/11 11:06:55;;;;;;;3.75;3.42;;;;;;;32.30;29.04;99356.16;1717185;83;21490;-70
2021/07/11 11:09:49;;;;;;;6.30;3.30;;;;;;;32.35;29.30;99347.47;1717171;83;21550;-70
2021/07/11 11:12:24;;;;;;;5.37;3.40;;;;;;;32.44;29.27;99350.24;1717152;83;21043;-70
2021/07/11 11:15:07;;;;;;;4.75;3.42;;;;;;;32.41;29.14;99344.75;1717225;83;20958;-70
2021/07/11 11:17:35;;;;;;;3.02;2.83;;;;;;;32.22;28.98;99346.92;1716454;82;20994;-70
2021/07/11 11:20:07;;;;;;;5.55;3.33;;;;;;;32.05;29.45;99348.32;1717344;83;21532;-71
2021/07/11 11:22:34;;;;;;;5.25;3.33;;;;;;;32.04;30.41;99343.45;1717395;83;21151;-69
2021/07/11 11:25:01;;;;;;;3.62;3.33;;;;;;;32.16;29.92;99341.84;1716999;83;20982;-70
2021/07/11 11:27:38;;;;;;;5.45;2.85;;;;;;;32.30;29.52;99344.04;1717140;83;21468;-70
2021/07/11 11:30:12;;;;;;;3.95;3.60;;;;;;;32.45;30.21;99341.13;1717163;83;20997;-70
2021/07/11 11:32:39;;;;;;;3.40;3.10;;;;;;;32.54;30.67;99343.94;1716771;83;20950;-71
2021/07/11 11:35:07;;;;;;;5.85;4.00;;;;;;;32.50;30.04;99341.34;1717346;83;21485;-71
2021/07/11 11:37:33;;;;;;;6.78;3.37;;;;;;;32.41;29.73;99343.41;1717337;83;21215;-70
2021/07/11 11:40:05;;;;;;;4.37;3.50;;;;;;;32.29;30.15;99334.31;1717064;83;21431;-69